sensor_id;sensor_type;location;lat;lon;timestamp;temperature;humidity
25963;DHT22;13760;52.588;13.406;2022-12-07T00:01:11;2.80;99.90
25963;DHT22;13760;52.588;13.406;2022-12-07T00:03:38;2.70;99.90
25963;DHT22;13760;52.588;13.406;2022-12-07T00:06:05;2.70;99.90
25963;DHT22;13760;52.588;13.406;2022-12-07T00:08:32;2.70;99.90
25963;DHT22;13760;52.588;13.406;2022-12-07T00:11:03;2.60;99.90
25963;DHT22;13760;52.588;13.406;2022-12-07T00:13:29;2.60;99.90
25963;DHT22;13760;52.588;13.406;2022-12-07T00:15:55;2.60;99.90
25963;DHT22;13760;52.588;13.406;2022-12-07T00:18:21;2.60;99.90
25963;DHT22;13760;52.588;13.406;2022-12-07T00:20:46;2.60;99.90
25963;DHT22;13760;52.588;13.406;2022-12-07T00:23:12;2.50;99.90
25963;DHT22;13760;52.588;13.406;2022-12-07T00:25:37;2.40;99.90
25963;DHT22;13760;52.588;13.406;2022-12-07T00:28:03;2.40;99.90
25963;DHT22;13760;52.588;13.406;2022-12-07T00:30:28;2.40;99.90
25963;DHT22;13760;52.588;13.406;2022-12-07T00:32:54;2.40;99.90
25963;DHT22;13760;52.588;13.406;2022-12-07T00:35:19;2.40;99.90
25963;DHT22;13760;52.588;13.406;2022-12-07T00:37:45;2.30;99.90
25963;DHT22;13760;52.588;13.406;2022-12-07T00:40:11;2.30;99.90
25963;DHT22;13760;52.588;13.406;2022-12-07T00:42:36;2.30;99.90
25963;DHT22;13760;52.588;13.406;2022-12-07T00:45:02;2.30;99.90
25963;DHT22;13760;52.588;13.406;2022-12-07T00:47:27;2.30;99.90
25963;DHT22;13760;52.588;13.406;2022-12-07T00:49:53;2.20;99.90
25963;DHT22;13760;52.588;13.406;2022-12-07T00:52:18;2.30;99.90
25963;DHT22;13760;52.588;13.406;2022-12-07T00:54:44;2.20;99.90
25963;DHT22;13760;52.588;13.406;2022-12-07T00:57:09;2.20;99.90
25963;DHT22;13760;52.588;13.406;2022-12-07T00:59:35;2.20;99.90
25963;DHT22;13760;52.588;13.406;2022-12-07T01:02:01;2.20;99.90
25963;DHT22;13760;52.588;13.406;2022-12-07T01:04:26;2.20;99.90
25963;DHT22;13760;52.588;13.406;2022-12-07T01:06:52;2.10;99.90
25963;DHT22;13760;52.588;13.406;2022-12-07T01:09:17;2.10;99.90
25963;DHT22;13760;52.588;13.406;2022-12-07T01:11:43;2.00;99.90
25963;DHT22;13760;52.588;13.406;2022-12-07T01:14:08;1.90;99.90
25963;DHT22;13760;52.588;13.406;2022-12-07T01:16:34;1.90;99.90
25963;DHT22;13760;52.588;13.406;2022-12-07T01:19:01;1.90;99.90
25963;DHT22;13760;52.588;13.406;2022-12-07T01:21:29;2.00;99.90
25963;DHT22;13760;52.588;13.406;2022-12-07T01:23:57;1.90;99.90
25963;DHT22;13760;52.588;13.406;2022-12-07T01:26:23;1.90;99.90
25963;DHT22;13760;52.588;13.406;2022-12-07T01:28:50;2.00;99.90
25963;DHT22;13760;52.588;13.406;2022-12-07T01:31:19;2.00;99.90
25963;DHT22;13760;52.588;13.406;2022-12-07T01:33:47;1.90;99.90
25963;DHT22;13760;52.588;13.406;2022-12-07T01:36:17;2.00;99.90
25963;DHT22;13760;52.588;13.406;2022-12-07T01:38:44;2.00;99.90
25963;DHT22;13760;52.588;13.406;2022-12-07T01:41:10;1.90;99.90
25963;DHT22;13760;52.588;13.406;2022-12-07T01:44:05;1.90;99.90
25963;DHT22;13760;52.588;13.406;2022-12-07T01:46:22;1.90;99.90
25963;DHT22;13760;52.588;13.406;2022-12-07T01:48:47;1.90;99.90
25963;DHT22;13760;52.588;13.406;2022-12-07T01:51:14;1.90;99.90
25963;DHT22;13760;52.588;13.406;2022-12-07T01:53:43;1.90;99.90
25963;DHT22;13760;52.588;13.406;2022-12-07T01:56:20;1.80;99.90
25963;DHT22;13760;52.588;13.406;2022-12-07T01:58:49;1.80;99.90
25963;DHT22;13760;52.588;13.406;2022-12-07T02:01:14;1.90;99.90
25963;DHT22;13760;52.588;13.406;2022-12-07T02:03:42;1.80;99.90
25963;DHT22;13760;52.588;13.406;2022-12-07T02:06:08;1.80;99.90
25963;DHT22;13760;52.588;13.406;2022-12-07T02:08:35;1.80;99.90
25963;DHT22;13760;52.588;13.406;2022-12-07T02:11:02;1.80;99.90
25963;DHT22;13760;52.588;13.406;2022-12-07T02:13:32;1.80;99.90
25963;DHT22;13760;52.588;13.406;2022-12-07T02:24:24;1.70;99.90
25963;DHT22;13760;52.588;13.406;2022-12-07T02:27:28;1.70;99.90
25963;DHT22;13760;52.588;13.406;2022-12-07T02:32:59;1.60;99.90
25963;DHT22;13760;52.588;13.406;2022-12-07T02:35:37;1.60;99.90
25963;DHT22;13760;52.588;13.406;2022-12-07T02:38:28;1.60;99.90
25963;DHT22;13760;52.588;13.406;2022-12-07T02:41:12;1.60;99.90
25963;DHT22;13760;52.588;13.406;2022-12-07T02:43:42;1.50;99.90
25963;DHT22;13760;52.588;13.406;2022-12-07T02:46:10;1.50;99.90
25963;DHT22;13760;52.588;13.406;2022-12-07T02:48:39;1.50;99.90
25963;DHT22;13760;52.588;13.406;2022-12-07T02:51:06;1.50;99.90
25963;DHT22;13760;52.588;13.406;2022-12-07T02:53:39;1.50;99.90
25963;DHT22;13760;52.588;13.406;2022-12-07T02:56:21;1.60;99.90
25963;DHT22;13760;52.588;13.406;2022-12-07T03:05:09;1.50;99.90
25963;DHT22;13760;52.588;13.406;2022-12-07T03:07:56;1.50;99.90
25963;DHT22;13760;52.588;13.406;2022-12-07T03:17:00;1.50;99.90
25963;DHT22;13760;52.588;13.406;2022-12-07T03:19:31;1.50;99.90
25963;DHT22;13760;52.588;13.406;2022-12-07T03:22:00;1.50;99.90
25963;DHT22;13760;52.588;13.406;2022-12-07T03:24:37;1.50;99.90
25963;DHT22;13760;52.588;13.406;2022-12-07T03:27:13;1.50;99.90
25963;DHT22;13760;52.588;13.406;2022-12-07T03:30:05;1.50;99.90
25963;DHT22;13760;52.588;13.406;2022-12-07T03:35:12;1.60;99.90
25963;DHT22;13760;52.588;13.406;2022-12-07T03:37:56;1.60;99.90
25963;DHT22;13760;52.588;13.406;2022-12-07T03:40:40;1.70;99.90
25963;DHT22;13760;52.588;13.406;2022-12-07T03:43:08;1.70;99.90
25963;DHT22;13760;52.588;13.406;2022-12-07T03:45:41;1.70;99.90
25963;DHT22;13760;52.588;13.406;2022-12-07T03:48:24;1.70;99.90
25963;DHT22;13760;52.588;13.406;2022-12-07T03:51:15;1.70;99.90
25963;DHT22;13760;52.588;13.406;2022-12-07T03:53:57;1.80;99.90
25963;DHT22;13760;52.588;13.406;2022-12-07T03:56:25;1.80;99.90
25963;DHT22;13760;52.588;13.406;2022-12-07T03:58:52;1.80;99.90
25963;DHT22;13760;52.588;13.406;2022-12-07T04:01:18;1.80;99.90
25963;DHT22;13760;52.588;13.406;2022-12-07T04:03:44;1.90;99.90
25963;DHT22;13760;52.588;13.406;2022-12-07T04:06:10;1.80;99.90
25963;DHT22;13760;52.588;13.406;2022-12-07T04:08:35;1.90;99.90
25963;DHT22;13760;52.588;13.406;2022-12-07T04:11:01;1.90;99.90
25963;DHT22;13760;52.588;13.406;2022-12-07T04:13:27;1.90;99.90
25963;DHT22;13760;52.588;13.406;2022-12-07T04:15:52;1.90;99.90
25963;DHT22;13760;52.588;13.406;2022-12-07T04:18:18;1.90;99.90
25963;DHT22;13760;52.588;13.406;2022-12-07T04:20:45;1.90;99.90
25963;DHT22;13760;52.588;13.406;2022-12-07T04:23:11;1.90;99.90
25963;DHT22;13760;52.588;13.406;2022-12-07T04:25:36;2.00;99.90
25963;DHT22;13760;52.588;13.406;2022-12-07T04:28:02;2.00;99.90
25963;DHT22;13760;52.588;13.406;2022-12-07T04:30:27;2.00;99.90
25963;DHT22;13760;52.588;13.406;2022-12-07T04:32:53;2.00;99.90
25963;DHT22;13760;52.588;13.406;2022-12-07T04:35:18;2.00;99.90
25963;DHT22;13760;52.588;13.406;2022-12-07T04:37:44;2.00;99.90
25963;DHT22;13760;52.588;13.406;2022-12-07T04:40:10;2.10;99.90
25963;DHT22;13760;52.588;13.406;2022-12-07T04:42:36;2.10;99.90
25963;DHT22;13760;52.588;13.406;2022-12-07T04:45:02;2.10;99.90
25963;DHT22;13760;52.588;13.406;2022-12-07T04:47:29;2.00;99.90
25963;DHT22;13760;52.588;13.406;2022-12-07T04:49:54;2.10;99.90
25963;DHT22;13760;52.588;13.406;2022-12-07T04:52:20;2.10;99.90
25963;DHT22;13760;52.588;13.406;2022-12-07T04:54:46;2.10;99.90
25963;DHT22;13760;52.588;13.406;2022-12-07T04:57:11;2.10;99.90
25963;DHT22;13760;52.588;13.406;2022-12-07T04:59:37;2.20;99.90
25963;DHT22;13760;52.588;13.406;2022-12-07T05:02:02;2.20;99.90
25963;DHT22;13760;52.588;13.406;2022-12-07T05:04:28;2.20;99.90
25963;DHT22;13760;52.588;13.406;2022-12-07T05:06:53;2.20;99.90
25963;DHT22;13760;52.588;13.406;2022-12-07T05:09:19;2.20;99.90
25963;DHT22;13760;52.588;13.406;2022-12-07T05:11:44;2.30;99.90
25963;DHT22;13760;52.588;13.406;2022-12-07T05:14:16;2.30;99.90
25963;DHT22;13760;52.588;13.406;2022-12-07T05:16:44;2.30;99.90
25963;DHT22;13760;52.588;13.406;2022-12-07T05:19:10;2.30;99.90
25963;DHT22;13760;52.588;13.406;2022-12-07T05:21:36;2.30;99.90
25963;DHT22;13760;52.588;13.406;2022-12-07T05:24:02;2.30;99.90
25963;DHT22;13760;52.588;13.406;2022-12-07T05:26:28;2.30;99.90
25963;DHT22;13760;52.588;13.406;2022-12-07T05:28:55;2.30;99.90
25963;DHT22;13760;52.588;13.406;2022-12-07T05:31:21;2.30;99.90
25963;DHT22;13760;52.588;13.406;2022-12-07T05:33:47;2.30;99.90
25963;DHT22;13760;52.588;13.406;2022-12-07T05:36:13;2.40;99.90
25963;DHT22;13760;52.588;13.406;2022-12-07T05:38:39;2.40;99.90
25963;DHT22;13760;52.588;13.406;2022-12-07T05:41:06;2.40;99.90
25963;DHT22;13760;52.588;13.406;2022-12-07T05:43:33;2.50;99.90
25963;DHT22;13760;52.588;13.406;2022-12-07T05:45:59;2.50;99.90
25963;DHT22;13760;52.588;13.406;2022-12-07T05:48:25;2.50;99.90
25963;DHT22;13760;52.588;13.406;2022-12-07T05:50:52;2.50;99.90
25963;DHT22;13760;52.588;13.406;2022-12-07T05:53:18;2.50;99.90
25963;DHT22;13760;52.588;13.406;2022-12-07T05:55:44;2.50;99.90
25963;DHT22;13760;52.588;13.406;2022-12-07T05:58:10;2.50;99.90
25963;DHT22;13760;52.588;13.406;2022-12-07T06:00:55;2.50;99.90
25963;DHT22;13760;52.588;13.406;2022-12-07T06:03:20;2.50;99.90
25963;DHT22;13760;52.588;13.406;2022-12-07T06:05:46;2.60;99.90
25963;DHT22;13760;52.588;13.406;2022-12-07T06:08:11;2.60;99.90
25963;DHT22;13760;52.588;13.406;2022-12-07T06:10:37;2.60;99.90
25963;DHT22;13760;52.588;13.406;2022-12-07T06:13:02;2.60;99.90
25963;DHT22;13760;52.588;13.406;2022-12-07T06:15:28;2.60;99.90
25963;DHT22;13760;52.588;13.406;2022-12-07T06:17:53;2.70;99.90
25963;DHT22;13760;52.588;13.406;2022-12-07T06:20:19;2.70;99.90
25963;DHT22;13760;52.588;13.406;2022-12-07T06:22:44;2.70;99.90
25963;DHT22;13760;52.588;13.406;2022-12-07T06:25:10;2.70;99.90
25963;DHT22;13760;52.588;13.406;2022-12-07T06:27:35;2.70;99.90
25963;DHT22;13760;52.588;13.406;2022-12-07T06:30:01;2.70;99.90
25963;DHT22;13760;52.588;13.406;2022-12-07T06:32:32;2.70;99.90
25963;DHT22;13760;52.588;13.406;2022-12-07T06:34:58;2.70;99.90
25963;DHT22;13760;52.588;13.406;2022-12-07T06:37:23;2.80;99.90
25963;DHT22;13760;52.588;13.406;2022-12-07T06:39:49;2.70;99.90
25963;DHT22;13760;52.588;13.406;2022-12-07T06:42:14;2.80;99.90
25963;DHT22;13760;52.588;13.406;2022-12-07T06:44:40;2.80;99.90
25963;DHT22;13760;52.588;13.406;2022-12-07T06:47:05;2.80;99.90
25963;DHT22;13760;52.588;13.406;2022-12-07T06:49:33;2.80;99.90
25963;DHT22;13760;52.588;13.406;2022-12-07T06:51:59;2.80;99.90
25963;DHT22;13760;52.588;13.406;2022-12-07T06:54:24;2.80;99.90
25963;DHT22;13760;52.588;13.406;2022-12-07T06:56:50;2.80;99.90
25963;DHT22;13760;52.588;13.406;2022-12-07T06:59:15;2.80;99.90
25963;DHT22;13760;52.588;13.406;2022-12-07T07:01:41;2.80;99.90
25963;DHT22;13760;52.588;13.406;2022-12-07T07:04:06;2.80;99.90
25963;DHT22;13760;52.588;13.406;2022-12-07T07:06:32;2.90;99.90
25963;DHT22;13760;52.588;13.406;2022-12-07T07:08:58;2.90;99.90
25963;DHT22;13760;52.588;13.406;2022-12-07T07:11:23;2.90;99.90
25963;DHT22;13760;52.588;13.406;2022-12-07T07:13:49;2.90;99.90
25963;DHT22;13760;52.588;13.406;2022-12-07T07:16:15;2.90;99.90
25963;DHT22;13760;52.588;13.406;2022-12-07T07:18:40;2.90;99.90
25963;DHT22;13760;52.588;13.406;2022-12-07T07:21:06;3.00;99.90
25963;DHT22;13760;52.588;13.406;2022-12-07T07:23:31;3.00;99.90
25963;DHT22;13760;52.588;13.406;2022-12-07T07:25:57;3.00;99.90
25963;DHT22;13760;52.588;13.406;2022-12-07T07:28:22;3.00;99.90
25963;DHT22;13760;52.588;13.406;2022-12-07T07:30:48;3.10;99.90
25963;DHT22;13760;52.588;13.406;2022-12-07T07:33:13;3.10;99.90
25963;DHT22;13760;52.588;13.406;2022-12-07T07:35:39;3.10;99.90
25963;DHT22;13760;52.588;13.406;2022-12-07T07:38:05;3.10;99.90
25963;DHT22;13760;52.588;13.406;2022-12-07T07:40:31;3.10;99.90
25963;DHT22;13760;52.588;13.406;2022-12-07T07:42:57;3.20;99.90
25963;DHT22;13760;52.588;13.406;2022-12-07T07:45:24;3.20;99.90
25963;DHT22;13760;52.588;13.406;2022-12-07T07:47:50;3.20;99.90
25963;DHT22;13760;52.588;13.406;2022-12-07T07:50:16;3.20;99.90
25963;DHT22;13760;52.588;13.406;2022-12-07T07:52:42;3.20;99.90
25963;DHT22;13760;52.588;13.406;2022-12-07T07:55:07;3.10;99.90
25963;DHT22;13760;52.588;13.406;2022-12-07T07:57:42;3.20;99.90
25963;DHT22;13760;52.588;13.406;2022-12-07T08:00:14;3.20;99.90
25963;DHT22;13760;52.588;13.406;2022-12-07T08:02:42;3.10;99.90
25963;DHT22;13760;52.588;13.406;2022-12-07T08:05:09;3.10;99.90
25963;DHT22;13760;52.588;13.406;2022-12-07T08:07:34;3.20;99.90
25963;DHT22;13760;52.588;13.406;2022-12-07T08:10:00;3.20;99.90
25963;DHT22;13760;52.588;13.406;2022-12-07T08:12:25;3.20;99.90
25963;DHT22;13760;52.588;13.406;2022-12-07T08:14:50;3.20;99.90
25963;DHT22;13760;52.588;13.406;2022-12-07T08:17:16;3.20;99.90
25963;DHT22;13760;52.588;13.406;2022-12-07T08:19:42;3.20;99.90
25963;DHT22;13760;52.588;13.406;2022-12-07T08:22:07;3.20;99.90
25963;DHT22;13760;52.588;13.406;2022-12-07T08:24:34;3.30;99.90
25963;DHT22;13760;52.588;13.406;2022-12-07T08:27:00;3.30;99.90
25963;DHT22;13760;52.588;13.406;2022-12-07T08:29:25;3.30;99.90
25963;DHT22;13760;52.588;13.406;2022-12-07T08:31:51;3.30;99.90
25963;DHT22;13760;52.588;13.406;2022-12-07T08:34:16;3.30;99.90
25963;DHT22;13760;52.588;13.406;2022-12-07T08:36:42;3.30;99.90
25963;DHT22;13760;52.588;13.406;2022-12-07T08:39:07;3.20;99.90
25963;DHT22;13760;52.588;13.406;2022-12-07T08:41:33;3.30;99.90
25963;DHT22;13760;52.588;13.406;2022-12-07T08:43:58;3.30;99.90
25963;DHT22;13760;52.588;13.406;2022-12-07T08:46:38;3.30;99.90
25963;DHT22;13760;52.588;13.406;2022-12-07T08:49:13;3.30;99.90
25963;DHT22;13760;52.588;13.406;2022-12-07T08:51:39;3.30;99.90
25963;DHT22;13760;52.588;13.406;2022-12-07T08:54:09;3.30;99.90
25963;DHT22;13760;52.588;13.406;2022-12-07T08:56:35;3.20;99.90
25963;DHT22;13760;52.588;13.406;2022-12-07T08:59:02;3.20;99.90
25963;DHT22;13760;52.588;13.406;2022-12-07T09:01:28;3.20;99.90
25963;DHT22;13760;52.588;13.406;2022-12-07T09:03:54;3.30;99.90
25963;DHT22;13760;52.588;13.406;2022-12-07T09:06:20;3.30;99.90
25963;DHT22;13760;52.588;13.406;2022-12-07T09:08:47;3.30;99.90
25963;DHT22;13760;52.588;13.406;2022-12-07T09:11:14;3.30;99.90
25963;DHT22;13760;52.588;13.406;2022-12-07T09:13:40;3.30;99.90
25963;DHT22;13760;52.588;13.406;2022-12-07T09:16:05;3.30;99.90
25963;DHT22;13760;52.588;13.406;2022-12-07T09:18:31;3.30;99.90
25963;DHT22;13760;52.588;13.406;2022-12-07T09:20:56;3.40;99.90
25963;DHT22;13760;52.588;13.406;2022-12-07T09:23:22;3.40;99.90
25963;DHT22;13760;52.588;13.406;2022-12-07T09:25:48;3.40;99.90
25963;DHT22;13760;52.588;13.406;2022-12-07T09:28:13;3.40;99.90
25963;DHT22;13760;52.588;13.406;2022-12-07T09:30:39;3.40;99.90
25963;DHT22;13760;52.588;13.406;2022-12-07T09:33:10;3.40;99.90
25963;DHT22;13760;52.588;13.406;2022-12-07T09:35:35;3.30;99.90
25963;DHT22;13760;52.588;13.406;2022-12-07T09:38:00;3.30;99.90
25963;DHT22;13760;52.588;13.406;2022-12-07T09:40:27;3.30;99.90
25963;DHT22;13760;52.588;13.406;2022-12-07T09:42:54;3.30;99.90
25963;DHT22;13760;52.588;13.406;2022-12-07T09:45:34;3.30;99.90
25963;DHT22;13760;52.588;13.406;2022-12-07T09:48:02;3.20;99.90
25963;DHT22;13760;52.588;13.406;2022-12-07T09:50:28;3.20;99.90
25963;DHT22;13760;52.588;13.406;2022-12-07T09:53:03;3.20;99.90
25963;DHT22;13760;52.588;13.406;2022-12-07T09:55:30;3.20;99.90
25963;DHT22;13760;52.588;13.406;2022-12-07T09:57:58;3.20;99.90
25963;DHT22;13760;52.588;13.406;2022-12-07T10:00:24;3.10;99.90
25963;DHT22;13760;52.588;13.406;2022-12-07T10:02:57;3.10;99.90
25963;DHT22;13760;52.588;13.406;2022-12-07T10:05:48;3.20;99.90
25963;DHT22;13760;52.588;13.406;2022-12-07T10:08:14;3.10;99.90
25963;DHT22;13760;52.588;13.406;2022-12-07T10:10:43;3.10;99.90
25963;DHT22;13760;52.588;13.406;2022-12-07T10:13:12;3.20;99.90
25963;DHT22;13760;52.588;13.406;2022-12-07T10:15:58;3.20;99.90
25963;DHT22;13760;52.588;13.406;2022-12-07T10:18:39;3.20;99.90
25963;DHT22;13760;52.588;13.406;2022-12-07T10:21:14;3.30;99.90
25963;DHT22;13760;52.588;13.406;2022-12-07T10:24:04;3.30;99.90
25963;DHT22;13760;52.588;13.406;2022-12-07T10:26:38;3.30;99.90
25963;DHT22;13760;52.588;13.406;2022-12-07T10:29:15;3.20;99.90
25963;DHT22;13760;52.588;13.406;2022-12-07T10:31:43;3.20;99.90
25963;DHT22;13760;52.588;13.406;2022-12-07T10:34:37;3.20;99.90
25963;DHT22;13760;52.588;13.406;2022-12-07T10:39:55;3.20;99.90
25963;DHT22;13760;52.588;13.406;2022-12-07T10:42:25;3.20;99.90
25963;DHT22;13760;52.588;13.406;2022-12-07T10:45:13;3.10;99.90
25963;DHT22;13760;52.588;13.406;2022-12-07T11:04:24;3.30;99.90
25963;DHT22;13760;52.588;13.406;2022-12-07T11:07:30;3.40;99.90
25963;DHT22;13760;52.588;13.406;2022-12-07T11:21:37;3.40;99.90
25963;DHT22;13760;52.588;13.406;2022-12-07T11:24:14;3.40;99.90
25963;DHT22;13760;52.588;13.406;2022-12-07T11:26:57;3.40;99.90
25963;DHT22;13760;52.588;13.406;2022-12-07T11:29:48;3.50;99.90
25963;DHT22;13760;52.588;13.406;2022-12-07T11:37:41;3.40;99.90
25963;DHT22;13760;52.588;13.406;2022-12-07T11:40:29;3.50;99.90
25963;DHT22;13760;52.588;13.406;2022-12-07T11:43:09;3.50;99.90
25963;DHT22;13760;52.588;13.406;2022-12-07T11:45:39;3.50;99.90
25963;DHT22;13760;52.588;13.406;2022-12-07T11:48:25;3.50;99.90
25963;DHT22;13760;52.588;13.406;2022-12-07T11:50:59;3.50;99.90
25963;DHT22;13760;52.588;13.406;2022-12-07T11:53:33;3.60;99.90
25963;DHT22;13760;52.588;13.406;2022-12-07T11:56:11;3.60;99.90
25963;DHT22;13760;52.588;13.406;2022-12-07T12:01:35;3.60;99.90
25963;DHT22;13760;52.588;13.406;2022-12-07T12:06:39;3.60;99.90
25963;DHT22;13760;52.588;13.406;2022-12-07T12:17:01;3.60;99.90
25963;DHT22;13760;52.588;13.406;2022-12-07T12:22:14;3.70;99.90
25963;DHT22;13760;52.588;13.406;2022-12-07T12:24:43;3.70;99.90
25963;DHT22;13760;52.588;13.406;2022-12-07T12:27:20;3.70;99.90
25963;DHT22;13760;52.588;13.406;2022-12-07T12:29:53;3.70;99.90
25963;DHT22;13760;52.588;13.406;2022-12-07T12:32:38;3.70;99.90
25963;DHT22;13760;52.588;13.406;2022-12-07T12:35:32;3.70;99.90
25963;DHT22;13760;52.588;13.406;2022-12-07T12:38:29;3.80;99.90
25963;DHT22;13760;52.588;13.406;2022-12-07T12:40:55;3.80;99.90
25963;DHT22;13760;52.588;13.406;2022-12-07T12:51:40;3.80;99.90
25963;DHT22;13760;52.588;13.406;2022-12-07T12:56:55;3.80;99.90
25963;DHT22;13760;52.588;13.406;2022-12-07T13:01:47;3.80;99.90
25963;DHT22;13760;52.588;13.406;2022-12-07T13:04:27;3.80;99.90
25963;DHT22;13760;52.588;13.406;2022-12-07T13:06:53;3.90;99.90
25963;DHT22;13760;52.588;13.406;2022-12-07T13:09:31;3.90;99.90
25963;DHT22;13760;52.588;13.406;2022-12-07T13:12:05;3.90;99.90
25963;DHT22;13760;52.588;13.406;2022-12-07T13:17:05;3.80;99.90
25963;DHT22;13760;52.588;13.406;2022-12-07T13:25:27;3.70;99.90
25963;DHT22;13760;52.588;13.406;2022-12-07T13:28:02;3.70;99.90
25963;DHT22;13760;52.588;13.406;2022-12-07T13:30:32;3.70;99.90
25963;DHT22;13760;52.588;13.406;2022-12-07T13:33:09;3.70;99.90
25963;DHT22;13760;52.588;13.406;2022-12-07T13:35:36;3.70;99.90
25963;DHT22;13760;52.588;13.406;2022-12-07T13:38:17;3.70;99.90
25963;DHT22;13760;52.588;13.406;2022-12-07T13:41:17;3.70;99.90
25963;DHT22;13760;52.588;13.406;2022-12-07T13:44:11;3.70;99.90
25963;DHT22;13760;52.588;13.406;2022-12-07T13:49:21;3.80;99.90
25963;DHT22;13760;52.588;13.406;2022-12-07T13:51:48;3.80;99.90
25963;DHT22;13760;52.588;13.406;2022-12-07T13:54:14;3.80;99.90
25963;DHT22;13760;52.588;13.406;2022-12-07T13:56:40;3.80;99.90
25963;DHT22;13760;52.588;13.406;2022-12-07T13:59:14;3.80;99.90
25963;DHT22;13760;52.588;13.406;2022-12-07T14:01:41;3.80;99.90
25963;DHT22;13760;52.588;13.406;2022-12-07T14:04:32;3.90;99.90
25963;DHT22;13760;52.588;13.406;2022-12-07T14:06:58;3.90;99.90
25963;DHT22;13760;52.588;13.406;2022-12-07T14:09:26;3.90;99.90
25963;DHT22;13760;52.588;13.406;2022-12-07T14:11:54;3.90;99.90
25963;DHT22;13760;52.588;13.406;2022-12-07T14:14:25;3.90;99.90
25963;DHT22;13760;52.588;13.406;2022-12-07T14:17:16;3.90;99.90
25963;DHT22;13760;52.588;13.406;2022-12-07T14:22:38;3.80;99.90
25963;DHT22;13760;52.588;13.406;2022-12-07T14:27:38;3.90;99.90
25963;DHT22;13760;52.588;13.406;2022-12-07T14:30:05;3.90;99.90
25963;DHT22;13760;52.588;13.406;2022-12-07T14:32:31;3.90;99.90
25963;DHT22;13760;52.588;13.406;2022-12-07T14:35:00;3.90;99.90
25963;DHT22;13760;52.588;13.406;2022-12-07T14:37:27;3.90;99.90
25963;DHT22;13760;52.588;13.406;2022-12-07T14:39:52;3.90;99.90
25963;DHT22;13760;52.588;13.406;2022-12-07T14:42:20;3.90;99.90
25963;DHT22;13760;52.588;13.406;2022-12-07T14:44:47;3.90;99.90
25963;DHT22;13760;52.588;13.406;2022-12-07T14:47:12;3.90;99.90
25963;DHT22;13760;52.588;13.406;2022-12-07T14:49:38;3.80;99.90
25963;DHT22;13760;52.588;13.406;2022-12-07T14:52:04;3.80;99.90
25963;DHT22;13760;52.588;13.406;2022-12-07T14:54:31;3.80;99.90
25963;DHT22;13760;52.588;13.406;2022-12-07T14:56:57;3.80;99.90
25963;DHT22;13760;52.588;13.406;2022-12-07T14:59:22;3.80;99.90
25963;DHT22;13760;52.588;13.406;2022-12-07T15:01:48;3.80;99.90
25963;DHT22;13760;52.588;13.406;2022-12-07T15:04:14;3.70;99.90
25963;DHT22;13760;52.588;13.406;2022-12-07T15:06:39;3.70;99.90
25963;DHT22;13760;52.588;13.406;2022-12-07T15:09:05;3.60;99.90
25963;DHT22;13760;52.588;13.406;2022-12-07T15:11:31;3.60;99.90
25963;DHT22;13760;52.588;13.406;2022-12-07T15:13:57;3.60;99.90
25963;DHT22;13760;52.588;13.406;2022-12-07T15:16:38;3.60;99.90
25963;DHT22;13760;52.588;13.406;2022-12-07T15:19:15;3.50;99.90
25963;DHT22;13760;52.588;13.406;2022-12-07T15:21:41;3.50;99.90
25963;DHT22;13760;52.588;13.406;2022-12-07T15:24:09;3.50;99.90
25963;DHT22;13760;52.588;13.406;2022-12-07T15:26:35;3.50;99.90
25963;DHT22;13760;52.588;13.406;2022-12-07T15:29:00;3.50;99.90
25963;DHT22;13760;52.588;13.406;2022-12-07T15:31:26;3.50;99.90
25963;DHT22;13760;52.588;13.406;2022-12-07T15:33:51;3.40;99.90
25963;DHT22;13760;52.588;13.406;2022-12-07T15:36:23;3.40;99.90
25963;DHT22;13760;52.588;13.406;2022-12-07T15:38:49;3.40;99.90
25963;DHT22;13760;52.588;13.406;2022-12-07T15:41:15;3.40;99.90
25963;DHT22;13760;52.588;13.406;2022-12-07T15:43:41;3.40;99.90
25963;DHT22;13760;52.588;13.406;2022-12-07T15:46:30;3.30;99.90
25963;DHT22;13760;52.588;13.406;2022-12-07T15:48:56;3.30;99.90
25963;DHT22;13760;52.588;13.406;2022-12-07T15:51:22;3.30;99.90
25963;DHT22;13760;52.588;13.406;2022-12-07T15:53:47;3.30;99.90
25963;DHT22;13760;52.588;13.406;2022-12-07T15:56:12;3.30;99.90
25963;DHT22;13760;52.588;13.406;2022-12-07T15:58:38;3.30;99.90
25963;DHT22;13760;52.588;13.406;2022-12-07T16:01:11;3.30;99.90
25963;DHT22;13760;52.588;13.406;2022-12-07T16:03:37;3.40;99.90
25963;DHT22;13760;52.588;13.406;2022-12-07T16:06:02;3.40;99.90
25963;DHT22;13760;52.588;13.406;2022-12-07T16:08:28;3.40;99.90
25963;DHT22;13760;52.588;13.406;2022-12-07T16:10:53;3.40;99.90
25963;DHT22;13760;52.588;13.406;2022-12-07T16:13:19;3.50;99.90
25963;DHT22;13760;52.588;13.406;2022-12-07T16:15:44;3.50;99.90
25963;DHT22;13760;52.588;13.406;2022-12-07T16:18:10;3.40;99.90
25963;DHT22;13760;52.588;13.406;2022-12-07T16:20:35;3.50;99.90
25963;DHT22;13760;52.588;13.406;2022-12-07T16:23:01;3.50;99.90
25963;DHT22;13760;52.588;13.406;2022-12-07T16:25:27;3.50;99.90
25963;DHT22;13760;52.588;13.406;2022-12-07T16:27:52;3.50;99.90
25963;DHT22;13760;52.588;13.406;2022-12-07T16:30:18;3.40;99.90
25963;DHT22;13760;52.588;13.406;2022-12-07T16:32:44;3.40;99.90
25963;DHT22;13760;52.588;13.406;2022-12-07T16:35:10;3.40;99.90
25963;DHT22;13760;52.588;13.406;2022-12-07T16:37:37;3.30;99.90
25963;DHT22;13760;52.588;13.406;2022-12-07T16:40:03;3.30;99.90
25963;DHT22;13760;52.588;13.406;2022-12-07T16:42:32;3.20;99.90
25963;DHT22;13760;52.588;13.406;2022-12-07T16:44:58;3.10;99.90
25963;DHT22;13760;52.588;13.406;2022-12-07T16:47:23;3.00;99.90
25963;DHT22;13760;52.588;13.406;2022-12-07T16:49:49;3.00;99.90
25963;DHT22;13760;52.588;13.406;2022-12-07T16:52:15;3.00;99.90
25963;DHT22;13760;52.588;13.406;2022-12-07T16:54:40;2.90;99.90
25963;DHT22;13760;52.588;13.406;2022-12-07T16:57:06;2.80;99.90
25963;DHT22;13760;52.588;13.406;2022-12-07T16:59:31;2.80;99.90
25963;DHT22;13760;52.588;13.406;2022-12-07T17:01:57;2.70;99.90
25963;DHT22;13760;52.588;13.406;2022-12-07T17:04:22;2.70;99.90
25963;DHT22;13760;52.588;13.406;2022-12-07T17:06:48;2.70;99.90
25963;DHT22;13760;52.588;13.406;2022-12-07T17:09:13;2.70;99.90
25963;DHT22;13760;52.588;13.406;2022-12-07T17:11:39;2.60;99.90
25963;DHT22;13760;52.588;13.406;2022-12-07T17:14:08;2.60;99.90
25963;DHT22;13760;52.588;13.406;2022-12-07T17:16:52;2.50;99.90
25963;DHT22;13760;52.588;13.406;2022-12-07T17:19:17;2.50;99.90
25963;DHT22;13760;52.588;13.406;2022-12-07T17:21:44;2.50;99.90
25963;DHT22;13760;52.588;13.406;2022-12-07T17:24:12;2.50;99.90
25963;DHT22;13760;52.588;13.406;2022-12-07T17:26:38;2.50;99.90
25963;DHT22;13760;52.588;13.406;2022-12-07T17:29:05;2.40;99.90
25963;DHT22;13760;52.588;13.406;2022-12-07T17:31:33;2.40;99.90